Terminal Aerodrome Forecast
Issued by NWS

Home | Current Version | Previous Version | Text Only | Print | Product List | Glossary On
Versions: 1 2 3 4 5 6 7 8 9 10 11 12 13 14 15 16 17 18 19 20 21
000
FTUS46 KMFR 291739
TAFOTH
TAF
KOTH 291739Z 2918/3018 36020G30KT P6SM SCT010
     FM292300 36024G34KT 5SM BR OVC006
     FM301000 35015G20KT 1SM BR OVC002
     FM301700 35016G26KT P6SM OVC006=

USA.gov is the U.S. government's official web portal to all federal, state and local government web resources and services.